»·PEaware :: FDX1974 KLAX-KLAS

FDX1974 :: KLAX-KLAS

FLIGHT INFORMATION

Flight Status: Arrived
Operator:
Federal Express
More flights by this operator :: More flights under this callsign
Pilot: Kyle M. (9350)
Aircraft: BOEING 767-300
(B763)
More flights by this aircraft type
Origin: KLAX Los Angeles Intl
United States
Destination: KLAS McCarran Intl
United States
More flights between these airports :: More routes between these airports
Route: +OSHNN8 MISEN KEPEC6
File this flight plan on PilotEdge
Remarks: CptCanada - Youtube Livestreams!
Altitude:
(Current/Filed)
31,000ft
Speed:
(Current/Filed)
450kts
Departed: 02-Dec-18 01:28 PM
Arrived: 02-Dec-18 02:16 PM
Distance/Time
Traveled:
206nm/0:48
Distance/Time
To Go:
Arrived

Flight Plot

Page will automatically refresh every two minutes.

Flight plan parsing failed; only flown route is shown


Map Options




Map Legend


Flown Route
Filed Route
Departure Airport
Arrival Airport
Navaid (VOR, NDB)
Fix

Horizontal Profiles

Position Reports

Time Latitude Longitude Heading Altitude Ground
Speed
02-Dec-18 13:04 33.933870 -118.385853 270 114ft 0kts
02-Dec-18 13:05 33.933870 -118.385853 270 114ft 0kts
02-Dec-18 13:06 33.933870 -118.385853 270 114ft 0kts
02-Dec-18 13:07 33.933870 -118.385853 270 114ft 0kts
02-Dec-18 13:08 33.933870 -118.385853 270 114ft 0kts
02-Dec-18 13:09 33.933870 -118.385853 270 114ft 0kts
02-Dec-18 13:10 33.933870 -118.385853 270 114ft 0kts
02-Dec-18 13:11 33.933870 -118.385853 270 114ft 0kts
02-Dec-18 13:12 33.933870 -118.385853 270 114ft 0kts
02-Dec-18 13:13 33.933870 -118.385853 270 114ft 0kts
02-Dec-18 13:14 33.933870 -118.385853 270 114ft 0kts
02-Dec-18 13:15 33.933870 -118.385853 270 114ft 0kts
02-Dec-18 13:16 33.933870 -118.385853 270 114ft 0kts
02-Dec-18 13:17 33.933870 -118.385853 270 114ft 0kts
02-Dec-18 13:18 33.933870 -118.385853 270 114ft 0kts
02-Dec-18 13:19 33.933870 -118.385853 270 114ft 0kts
02-Dec-18 13:20 33.933870 -118.385853 270 114ft 0kts
02-Dec-18 13:21 33.933870 -118.385853 270 114ft 0kts
02-Dec-18 13:22 33.933870 -118.385846 270 114ft 1kts
02-Dec-18 13:23 33.933761 -118.385177 327 114ft 2kts
02-Dec-18 13:24 33.933558 -118.385111 359 114ft 0kts
02-Dec-18 13:25 33.933558 -118.385111 359 114ft 0kts
02-Dec-18 13:26 33.934396 -118.385121 359 114ft 10kts
02-Dec-18 13:27 33.934666 -118.385126 0 114ft 0kts
02-Dec-18 13:28 33.934705 -118.385126 0 114ft 2kts
02-Dec-18 13:29 33.936150 -118.383070 58 114ft 8kts
02-Dec-18 13:30 33.936379 -118.382829 27 114ft 4kts
02-Dec-18 13:31 33.936616 -118.390087 262 114ft 87kts
02-Dec-18 13:32 33.924353 -118.437727 218 1439ft 191kts
02-Dec-18 13:33 33.883558 -118.487596 242 3829ft 229kts
02-Dec-18 13:34 33.848538 -118.555146 205 6831ft 258kts
02-Dec-18 13:35 33.774708 -118.542311 168 9735ft 287kts
02-Dec-18 13:36 33.695757 -118.503871 134 11678ft 350kts
02-Dec-18 13:37 33.658212 -118.389623 110 14474ft 384kts
02-Dec-18 13:38 33.645693 -118.259193 91 17007ft 414kts
02-Dec-18 13:39 33.691756 -118.140798 35 17246ft 411kts
02-Dec-18 13:40 33.783304 -118.057123 35 20087ft 426kts
02-Dec-18 13:41 33.879553 -117.970447 35 22642ft 443kts
02-Dec-18 13:42 33.979298 -117.879621 35 25029ft 460kts
02-Dec-18 13:43 34.077383 -117.789299 38 27181ft 475kts
02-Dec-18 13:44 34.165229 -117.666906 49 29266ft 493kts
02-Dec-18 13:45 34.252166 -117.538047 48 31053ft 501kts
02-Dec-18 13:46 34.338652 -117.408940 48 31053ft 495kts
02-Dec-18 13:47 34.425004 -117.279731 49 31073ft 495kts
02-Dec-18 13:48 34.511045 -117.150150 49 31074ft 495kts
02-Dec-18 13:49 34.598887 -117.022303 47 31075ft 495kts
02-Dec-18 13:50 34.686494 -116.894951 47 31076ft 494kts
02-Dec-18 13:51 34.774283 -116.766707 47 31077ft 494kts
02-Dec-18 13:52 34.862559 -116.641260 40 29867ft 471kts
02-Dec-18 13:53 34.962166 -116.542533 36 27014ft 453kts
02-Dec-18 13:54 35.059238 -116.449459 35 24932ft 439kts
02-Dec-18 13:55 35.148290 -116.351771 44 23168ft 429kts
02-Dec-18 13:56 35.229646 -116.250142 45 21504ft 418kts
02-Dec-18 13:57 35.310698 -116.148288 45 19849ft 417kts
02-Dec-18 13:58 35.389330 -116.049141 45 18211ft 398kts
02-Dec-18 13:59 35.465014 -115.953435 45 16699ft 387kts
02-Dec-18 14:00 35.538714 -115.859972 45 15201ft 376kts
02-Dec-18 14:01 35.610249 -115.769003 45 13743ft 366kts
02-Dec-18 14:02 35.677051 -115.680416 46 13037ft 330kts
02-Dec-18 14:03 35.738127 -115.601950 44 13048ft 316kts
02-Dec-18 14:04 35.819270 -115.573097 1 13034ft 312kts
02-Dec-18 14:05 35.905265 -115.567863 0 13019ft 307kts
02-Dec-18 14:06 35.981833 -115.530550 53 12599ft 316kts
02-Dec-18 14:07 36.013995 -115.434189 64 11540ft 283kts
02-Dec-18 14:08 36.029721 -115.340177 93 10533ft 289kts
02-Dec-18 14:09 36.023513 -115.242394 93 9402ft 284kts
02-Dec-18 14:10 36.016116 -115.145987 93 8128ft 286kts
02-Dec-18 14:11 36.010439 -115.050622 91 7713ft 278kts
02-Dec-18 14:12 36.006728 -114.958272 80 6654ft 248kts
02-Dec-18 14:13 36.057756 -114.921139 3 5440ft 235kts
02-Dec-18 14:14 36.100292 -114.951097 254 4489ft 193kts
02-Dec-18 14:15 36.076437 -114.999581 242 3818ft 151kts
02-Dec-18 14:16 36.072447 -115.048026 278 3168ft 146kts
02-Dec-18 14:17 36.073468 -115.098912 274 2579ft 146kts
02-Dec-18 14:18 36.073644 -115.143487 270 2122ft 64kts
02-Dec-18 14:19 36.074664 -115.150506 300 2122ft 0kts
02-Dec-18 14:20 36.074664 -115.150506 300 2122ft 0kts
02-Dec-18 14:21 36.075027 -115.151064 317 2122ft 13kts
02-Dec-18 14:22 36.078700 -115.150775 73 2122ft 15kts
02-Dec-18 14:23 36.078295 -115.143721 93 2122ft 20kts
02-Dec-18 14:24 36.078246 -115.136000 90 2122ft 21kts
02-Dec-18 14:25 36.078248 -115.128286 90 2122ft 20kts
02-Dec-18 14:26 36.081713 -115.126398 0 2122ft 9kts
02-Dec-18 14:27 36.082409 -115.125528 90 2122ft 0kts

Navigation Log

Ident Type
Flight plan parsing failed, navigation log unavailable